sensor_id;sensor_type;location;lat;lon;timestamp;temperature;humidity
13205;DHT22;6667;52.634;9.226;2023-02-11T00:01:37;5.50;99.90
13205;DHT22;6667;52.634;9.226;2023-02-11T00:04:04;5.50;99.90
13205;DHT22;6667;52.634;9.226;2023-02-11T00:06:33;5.40;99.90
13205;DHT22;6667;52.634;9.226;2023-02-11T00:09:00;5.50;99.90
13205;DHT22;6667;52.634;9.226;2023-02-11T00:11:28;5.40;99.90
13205;DHT22;6667;52.634;9.226;2023-02-11T00:13:56;5.40;99.90
13205;DHT22;6667;52.634;9.226;2023-02-11T00:16:23;5.40;99.90
13205;DHT22;6667;52.634;9.226;2023-02-11T00:18:49;5.40;99.90
13205;DHT22;6667;52.634;9.226;2023-02-11T00:21:19;5.40;99.90
13205;DHT22;6667;52.634;9.226;2023-02-11T00:23:46;5.40;99.90
13205;DHT22;6667;52.634;9.226;2023-02-11T00:26:13;5.40;99.90
13205;DHT22;6667;52.634;9.226;2023-02-11T00:28:41;5.30;99.90
13205;DHT22;6667;52.634;9.226;2023-02-11T00:31:08;5.40;99.90
13205;DHT22;6667;52.634;9.226;2023-02-11T00:33:35;5.40;99.90
13205;DHT22;6667;52.634;9.226;2023-02-11T00:36:03;5.40;99.90
13205;DHT22;6667;52.634;9.226;2023-02-11T00:38:30;5.40;99.90
13205;DHT22;6667;52.634;9.226;2023-02-11T00:40:57;5.40;99.90
13205;DHT22;6667;52.634;9.226;2023-02-11T00:43:24;5.40;99.90
13205;DHT22;6667;52.634;9.226;2023-02-11T00:45:52;5.40;99.90
13205;DHT22;6667;52.634;9.226;2023-02-11T00:48:18;5.40;99.90
13205;DHT22;6667;52.634;9.226;2023-02-11T00:50:45;5.50;99.90
13205;DHT22;6667;52.634;9.226;2023-02-11T00:53:11;5.50;99.90
13205;DHT22;6667;52.634;9.226;2023-02-11T00:55:38;5.50;99.90
13205;DHT22;6667;52.634;9.226;2023-02-11T00:58:05;5.50;99.90
13205;DHT22;6667;52.634;9.226;2023-02-11T01:00:31;5.60;99.90
13205;DHT22;6667;52.634;9.226;2023-02-11T01:02:59;5.60;99.90
13205;DHT22;6667;52.634;9.226;2023-02-11T01:05:26;5.60;99.90
13205;DHT22;6667;52.634;9.226;2023-02-11T01:07:53;5.60;99.90
13205;DHT22;6667;52.634;9.226;2023-02-11T01:10:20;5.60;99.90
13205;DHT22;6667;52.634;9.226;2023-02-11T01:12:46;5.60;99.90
13205;DHT22;6667;52.634;9.226;2023-02-11T01:15:14;5.60;99.90
13205;DHT22;6667;52.634;9.226;2023-02-11T01:17:41;5.70;99.90
13205;DHT22;6667;52.634;9.226;2023-02-11T01:20:14;5.70;99.90
13205;DHT22;6667;52.634;9.226;2023-02-11T01:22:41;5.70;99.90
13205;DHT22;6667;52.634;9.226;2023-02-11T01:25:08;5.70;99.90
13205;DHT22;6667;52.634;9.226;2023-02-11T01:27:35;5.80;99.90
13205;DHT22;6667;52.634;9.226;2023-02-11T01:30:03;5.70;99.90
13205;DHT22;6667;52.634;9.226;2023-02-11T01:32:30;5.70;99.90
13205;DHT22;6667;52.634;9.226;2023-02-11T01:34:56;5.70;99.90
13205;DHT22;6667;52.634;9.226;2023-02-11T01:37:24;5.80;99.90
13205;DHT22;6667;52.634;9.226;2023-02-11T01:39:51;5.80;99.90
13205;DHT22;6667;52.634;9.226;2023-02-11T01:42:20;5.80;99.90
13205;DHT22;6667;52.634;9.226;2023-02-11T01:44:48;5.90;99.90
13205;DHT22;6667;52.634;9.226;2023-02-11T01:47:16;5.80;99.90
13205;DHT22;6667;52.634;9.226;2023-02-11T01:49:44;5.80;99.90
13205;DHT22;6667;52.634;9.226;2023-02-11T01:52:16;5.90;99.90
13205;DHT22;6667;52.634;9.226;2023-02-11T01:54:50;5.90;99.90
13205;DHT22;6667;52.634;9.226;2023-02-11T01:57:38;5.90;99.90
13205;DHT22;6667;52.634;9.226;2023-02-11T02:00:09;5.90;99.90
13205;DHT22;6667;52.634;9.226;2023-02-11T02:02:42;6.00;99.90
13205;DHT22;6667;52.634;9.226;2023-02-11T02:05:18;6.00;99.90
13205;DHT22;6667;52.634;9.226;2023-02-11T02:07:53;6.00;99.90
13205;DHT22;6667;52.634;9.226;2023-02-11T02:10:25;5.90;99.90
13205;DHT22;6667;52.634;9.226;2023-02-11T02:12:52;6.00;99.90
13205;DHT22;6667;52.634;9.226;2023-02-11T02:15:27;6.00;99.90
13205;DHT22;6667;52.634;9.226;2023-02-11T02:18:02;6.00;99.90
13205;DHT22;6667;52.634;9.226;2023-02-11T02:20:51;6.00;99.90
13205;DHT22;6667;52.634;9.226;2023-02-11T02:23:34;6.00;99.90
13205;DHT22;6667;52.634;9.226;2023-02-11T02:29:30;6.00;99.90
13205;DHT22;6667;52.634;9.226;2023-02-11T02:32:35;6.10;99.90
13205;DHT22;6667;52.634;9.226;2023-02-11T02:35:11;6.10;99.90
13205;DHT22;6667;52.634;9.226;2023-02-11T02:37:42;6.10;99.90
13205;DHT22;6667;52.634;9.226;2023-02-11T02:40:16;6.20;99.90
13205;DHT22;6667;52.634;9.226;2023-02-11T02:42:45;6.10;99.90
13205;DHT22;6667;52.634;9.226;2023-02-11T02:45:12;6.10;99.90
13205;DHT22;6667;52.634;9.226;2023-02-11T02:47:41;6.10;99.90
13205;DHT22;6667;52.634;9.226;2023-02-11T02:50:08;6.10;99.90
13205;DHT22;6667;52.634;9.226;2023-02-11T02:52:40;6.20;99.90
13205;DHT22;6667;52.634;9.226;2023-02-11T02:55:22;6.10;99.90
13205;DHT22;6667;52.634;9.226;2023-02-11T02:58:05;6.20;99.90
13205;DHT22;6667;52.634;9.226;2023-02-11T03:00:40;6.10;99.90
13205;DHT22;6667;52.634;9.226;2023-02-11T03:03:21;6.10;99.90
13205;DHT22;6667;52.634;9.226;2023-02-11T03:05:52;6.20;99.90
13205;DHT22;6667;52.634;9.226;2023-02-11T03:08:26;6.20;99.90
13205;DHT22;6667;52.634;9.226;2023-02-11T03:10:55;6.20;99.90
13205;DHT22;6667;52.634;9.226;2023-02-11T03:13:25;6.20;99.90
13205;DHT22;6667;52.634;9.226;2023-02-11T03:15:55;6.20;99.90
13205;DHT22;6667;52.634;9.226;2023-02-11T03:18:26;6.20;99.90
13205;DHT22;6667;52.634;9.226;2023-02-11T03:20:55;6.20;99.90
13205;DHT22;6667;52.634;9.226;2023-02-11T03:23:27;6.20;99.90
13205;DHT22;6667;52.634;9.226;2023-02-11T03:25:57;6.20;99.90
13205;DHT22;6667;52.634;9.226;2023-02-11T03:28:28;6.20;99.90
13205;DHT22;6667;52.634;9.226;2023-02-11T03:31:03;6.20;99.90
13205;DHT22;6667;52.634;9.226;2023-02-11T03:33:38;6.30;99.90
13205;DHT22;6667;52.634;9.226;2023-02-11T03:36:09;6.30;99.90
13205;DHT22;6667;52.634;9.226;2023-02-11T03:38:45;6.30;99.90
13205;DHT22;6667;52.634;9.226;2023-02-11T03:41:14;6.30;99.90
13205;DHT22;6667;52.634;9.226;2023-02-11T03:43:44;6.30;99.90
13205;DHT22;6667;52.634;9.226;2023-02-11T03:46:15;6.30;99.90
13205;DHT22;6667;52.634;9.226;2023-02-11T03:48:48;6.30;99.90
13205;DHT22;6667;52.634;9.226;2023-02-11T03:51:15;6.30;99.90
13205;DHT22;6667;52.634;9.226;2023-02-11T03:53:44;6.30;99.90
13205;DHT22;6667;52.634;9.226;2023-02-11T03:56:14;6.30;99.90
13205;DHT22;6667;52.634;9.226;2023-02-11T03:58:43;6.30;99.90
13205;DHT22;6667;52.634;9.226;2023-02-11T04:01:10;6.30;99.90
13205;DHT22;6667;52.634;9.226;2023-02-11T04:03:37;6.30;99.90
13205;DHT22;6667;52.634;9.226;2023-02-11T04:06:05;6.30;99.90
13205;DHT22;6667;52.634;9.226;2023-02-11T04:08:32;6.40;99.90
13205;DHT22;6667;52.634;9.226;2023-02-11T04:10:58;6.30;99.90
13205;DHT22;6667;52.634;9.226;2023-02-11T04:13:25;6.30;99.90
13205;DHT22;6667;52.634;9.226;2023-02-11T04:15:52;6.30;99.90
13205;DHT22;6667;52.634;9.226;2023-02-11T04:18:18;6.30;99.90
13205;DHT22;6667;52.634;9.226;2023-02-11T04:20:45;6.30;99.90
13205;DHT22;6667;52.634;9.226;2023-02-11T04:23:13;6.40;99.90
13205;DHT22;6667;52.634;9.226;2023-02-11T04:25:40;6.40;99.90
13205;DHT22;6667;52.634;9.226;2023-02-11T04:28:07;6.40;99.90
13205;DHT22;6667;52.634;9.226;2023-02-11T04:30:34;6.30;99.90
13205;DHT22;6667;52.634;9.226;2023-02-11T04:33:00;6.40;99.90
13205;DHT22;6667;52.634;9.226;2023-02-11T04:35:27;6.40;99.90
13205;DHT22;6667;52.634;9.226;2023-02-11T04:37:53;6.40;99.90
13205;DHT22;6667;52.634;9.226;2023-02-11T04:40:21;6.40;99.90
13205;DHT22;6667;52.634;9.226;2023-02-11T04:42:48;6.40;99.90
13205;DHT22;6667;52.634;9.226;2023-02-11T04:45:15;6.40;99.90
13205;DHT22;6667;52.634;9.226;2023-02-11T04:47:41;6.40;99.90
13205;DHT22;6667;52.634;9.226;2023-02-11T04:50:08;6.40;99.90
13205;DHT22;6667;52.634;9.226;2023-02-11T04:52:35;6.40;99.90
13205;DHT22;6667;52.634;9.226;2023-02-11T04:55:01;6.40;99.90
13205;DHT22;6667;52.634;9.226;2023-02-11T04:57:29;6.50;99.90
13205;DHT22;6667;52.634;9.226;2023-02-11T04:59:56;6.40;99.90
13205;DHT22;6667;52.634;9.226;2023-02-11T05:02:23;6.50;99.90
13205;DHT22;6667;52.634;9.226;2023-02-11T05:04:49;6.50;99.90
13205;DHT22;6667;52.634;9.226;2023-02-11T05:07:16;6.40;99.90
13205;DHT22;6667;52.634;9.226;2023-02-11T05:09:42;6.40;99.90
13205;DHT22;6667;52.634;9.226;2023-02-11T05:12:09;6.50;99.90
13205;DHT22;6667;52.634;9.226;2023-02-11T05:14:37;6.50;99.90
13205;DHT22;6667;52.634;9.226;2023-02-11T05:17:04;6.50;99.90
13205;DHT22;6667;52.634;9.226;2023-02-11T05:19:30;6.50;99.90
13205;DHT22;6667;52.634;9.226;2023-02-11T05:21:57;6.50;99.90
13205;DHT22;6667;52.634;9.226;2023-02-11T05:24:23;6.50;99.90
13205;DHT22;6667;52.634;9.226;2023-02-11T05:26:50;6.40;99.90
13205;DHT22;6667;52.634;9.226;2023-02-11T05:29:17;6.50;99.90
13205;DHT22;6667;52.634;9.226;2023-02-11T05:31:45;6.50;99.90
13205;DHT22;6667;52.634;9.226;2023-02-11T05:34:12;6.50;99.90
13205;DHT22;6667;52.634;9.226;2023-02-11T05:36:39;6.50;99.90
13205;DHT22;6667;52.634;9.226;2023-02-11T05:39:05;6.50;99.90
13205;DHT22;6667;52.634;9.226;2023-02-11T05:41:32;6.50;99.90
13205;DHT22;6667;52.634;9.226;2023-02-11T05:43:58;6.50;99.90
13205;DHT22;6667;52.634;9.226;2023-02-11T05:46:25;6.50;99.90
13205;DHT22;6667;52.634;9.226;2023-02-11T05:48:53;6.50;99.90
13205;DHT22;6667;52.634;9.226;2023-02-11T05:51:21;6.50;99.90
13205;DHT22;6667;52.634;9.226;2023-02-11T05:53:49;6.50;99.90
13205;DHT22;6667;52.634;9.226;2023-02-11T05:56:16;6.60;99.90
13205;DHT22;6667;52.634;9.226;2023-02-11T05:58:42;6.50;99.90
13205;DHT22;6667;52.634;9.226;2023-02-11T06:01:09;6.50;99.90
13205;DHT22;6667;52.634;9.226;2023-02-11T06:03:36;6.50;99.90
13205;DHT22;6667;52.634;9.226;2023-02-11T06:06:04;6.60;99.90
13205;DHT22;6667;52.634;9.226;2023-02-11T06:08:34;6.50;99.90
13205;DHT22;6667;52.634;9.226;2023-02-11T06:11:01;6.50;99.90
13205;DHT22;6667;52.634;9.226;2023-02-11T06:13:28;6.50;99.90
13205;DHT22;6667;52.634;9.226;2023-02-11T06:15:55;6.50;99.90
13205;DHT22;6667;52.634;9.226;2023-02-11T06:18:22;6.50;99.90
13205;DHT22;6667;52.634;9.226;2023-02-11T06:20:49;6.50;99.90
13205;DHT22;6667;52.634;9.226;2023-02-11T06:23:17;6.50;99.90
13205;DHT22;6667;52.634;9.226;2023-02-11T06:25:44;6.60;99.90
13205;DHT22;6667;52.634;9.226;2023-02-11T06:28:10;6.60;99.90
13205;DHT22;6667;52.634;9.226;2023-02-11T06:30:37;6.60;99.90
13205;DHT22;6667;52.634;9.226;2023-02-11T06:33:04;6.60;99.90
13205;DHT22;6667;52.634;9.226;2023-02-11T06:35:31;6.60;99.90
13205;DHT22;6667;52.634;9.226;2023-02-11T06:37:59;6.60;99.90
13205;DHT22;6667;52.634;9.226;2023-02-11T06:40:27;6.60;99.90
13205;DHT22;6667;52.634;9.226;2023-02-11T06:42:54;6.60;99.90
13205;DHT22;6667;52.634;9.226;2023-02-11T06:45:21;6.60;99.90
13205;DHT22;6667;52.634;9.226;2023-02-11T06:47:50;6.60;99.90
13205;DHT22;6667;52.634;9.226;2023-02-11T06:50:17;6.60;99.90
13205;DHT22;6667;52.634;9.226;2023-02-11T06:52:43;6.50;99.90
13205;DHT22;6667;52.634;9.226;2023-02-11T06:55:10;6.60;99.90
13205;DHT22;6667;52.634;9.226;2023-02-11T06:57:38;6.50;99.90
13205;DHT22;6667;52.634;9.226;2023-02-11T07:00:05;6.60;99.90
13205;DHT22;6667;52.634;9.226;2023-02-11T07:02:32;6.60;99.90
13205;DHT22;6667;52.634;9.226;2023-02-11T07:04:59;6.50;99.90
13205;DHT22;6667;52.634;9.226;2023-02-11T07:07:26;6.50;99.90
13205;DHT22;6667;52.634;9.226;2023-02-11T07:09:53;6.50;99.90
13205;DHT22;6667;52.634;9.226;2023-02-11T07:12:19;6.60;99.90
13205;DHT22;6667;52.634;9.226;2023-02-11T07:14:47;6.60;99.90
13205;DHT22;6667;52.634;9.226;2023-02-11T07:17:14;6.60;99.90
13205;DHT22;6667;52.634;9.226;2023-02-11T07:19:41;6.60;99.90
13205;DHT22;6667;52.634;9.226;2023-02-11T07:22:07;6.60;99.90
13205;DHT22;6667;52.634;9.226;2023-02-11T07:24:34;6.60;99.90
13205;DHT22;6667;52.634;9.226;2023-02-11T07:27:01;6.60;99.90
13205;DHT22;6667;52.634;9.226;2023-02-11T07:29:27;6.60;99.90
13205;DHT22;6667;52.634;9.226;2023-02-11T07:31:55;6.60;99.90
13205;DHT22;6667;52.634;9.226;2023-02-11T07:34:22;6.60;99.90
13205;DHT22;6667;52.634;9.226;2023-02-11T07:36:50;6.60;99.90
13205;DHT22;6667;52.634;9.226;2023-02-11T07:39:16;6.60;99.90
13205;DHT22;6667;52.634;9.226;2023-02-11T07:41:44;6.60;99.90
13205;DHT22;6667;52.634;9.226;2023-02-11T07:44:12;6.60;99.90
13205;DHT22;6667;52.634;9.226;2023-02-11T07:46:38;6.60;99.90
13205;DHT22;6667;52.634;9.226;2023-02-11T07:49:08;6.60;99.90
13205;DHT22;6667;52.634;9.226;2023-02-11T07:51:35;6.60;99.90
13205;DHT22;6667;52.634;9.226;2023-02-11T07:54:02;6.70;99.90
13205;DHT22;6667;52.634;9.226;2023-02-11T07:56:29;6.60;99.90
13205;DHT22;6667;52.634;9.226;2023-02-11T07:58:59;6.70;99.90
13205;DHT22;6667;52.634;9.226;2023-02-11T08:01:26;6.70;99.90
13205;DHT22;6667;52.634;9.226;2023-02-11T08:03:53;6.70;99.90
13205;DHT22;6667;52.634;9.226;2023-02-11T08:06:23;6.70;99.90
13205;DHT22;6667;52.634;9.226;2023-02-11T08:08:50;6.70;99.90
13205;DHT22;6667;52.634;9.226;2023-02-11T08:11:19;6.70;99.90
13205;DHT22;6667;52.634;9.226;2023-02-11T08:13:46;6.70;99.90
13205;DHT22;6667;52.634;9.226;2023-02-11T08:16:17;6.70;99.90
13205;DHT22;6667;52.634;9.226;2023-02-11T08:18:44;6.70;99.90
13205;DHT22;6667;52.634;9.226;2023-02-11T08:21:11;6.80;99.90
13205;DHT22;6667;52.634;9.226;2023-02-11T08:23:40;6.70;99.90
13205;DHT22;6667;52.634;9.226;2023-02-11T08:26:09;6.80;99.90
13205;DHT22;6667;52.634;9.226;2023-02-11T08:28:38;6.80;99.90
13205;DHT22;6667;52.634;9.226;2023-02-11T08:31:05;6.70;99.90
13205;DHT22;6667;52.634;9.226;2023-02-11T08:33:32;6.80;99.90
13205;DHT22;6667;52.634;9.226;2023-02-11T08:35:59;6.80;99.90
13205;DHT22;6667;52.634;9.226;2023-02-11T08:38:26;6.80;99.90
13205;DHT22;6667;52.634;9.226;2023-02-11T08:40:54;6.80;99.90
13205;DHT22;6667;52.634;9.226;2023-02-11T08:43:21;6.90;99.90
13205;DHT22;6667;52.634;9.226;2023-02-11T08:45:47;6.90;99.90
13205;DHT22;6667;52.634;9.226;2023-02-11T08:48:14;6.90;99.90
13205;DHT22;6667;52.634;9.226;2023-02-11T08:50:41;6.90;99.90
13205;DHT22;6667;52.634;9.226;2023-02-11T08:53:07;6.90;99.90
13205;DHT22;6667;52.634;9.226;2023-02-11T08:55:34;7.00;99.90
13205;DHT22;6667;52.634;9.226;2023-02-11T08:58:02;7.00;99.90
13205;DHT22;6667;52.634;9.226;2023-02-11T09:00:30;7.00;99.90
13205;DHT22;6667;52.634;9.226;2023-02-11T09:02:56;7.00;99.90
13205;DHT22;6667;52.634;9.226;2023-02-11T09:05:23;7.00;99.90
13205;DHT22;6667;52.634;9.226;2023-02-11T09:07:50;7.00;99.90
13205;DHT22;6667;52.634;9.226;2023-02-11T09:10:16;7.00;99.90
13205;DHT22;6667;52.634;9.226;2023-02-11T09:12:43;7.10;99.90
13205;DHT22;6667;52.634;9.226;2023-02-11T09:15:11;7.10;99.90
13205;DHT22;6667;52.634;9.226;2023-02-11T09:17:38;7.10;99.90
13205;DHT22;6667;52.634;9.226;2023-02-11T09:20:05;7.10;99.90
13205;DHT22;6667;52.634;9.226;2023-02-11T09:22:32;7.10;99.90
13205;DHT22;6667;52.634;9.226;2023-02-11T09:24:58;7.10;99.90
13205;DHT22;6667;52.634;9.226;2023-02-11T09:27:25;7.10;99.90
13205;DHT22;6667;52.634;9.226;2023-02-11T09:29:52;7.10;99.90
13205;DHT22;6667;52.634;9.226;2023-02-11T09:32:20;7.10;99.90
13205;DHT22;6667;52.634;9.226;2023-02-11T09:34:46;7.10;99.90
13205;DHT22;6667;52.634;9.226;2023-02-11T09:37:13;7.10;99.90
13205;DHT22;6667;52.634;9.226;2023-02-11T09:39:39;7.10;99.90
13205;DHT22;6667;52.634;9.226;2023-02-11T09:42:16;7.10;99.90
13205;DHT22;6667;52.634;9.226;2023-02-11T09:44:45;7.20;99.90
13205;DHT22;6667;52.634;9.226;2023-02-11T09:47:23;7.10;99.90
13205;DHT22;6667;52.634;9.226;2023-02-11T09:49:53;7.20;99.90
13205;DHT22;6667;52.634;9.226;2023-02-11T09:52:32;7.20;99.90
13205;DHT22;6667;52.634;9.226;2023-02-11T09:55:03;7.20;99.90
13205;DHT22;6667;52.634;9.226;2023-02-11T09:57:32;7.20;99.90
13205;DHT22;6667;52.634;9.226;2023-02-11T09:59:59;7.20;99.90
13205;DHT22;6667;52.634;9.226;2023-02-11T10:02:31;7.20;99.90
13205;DHT22;6667;52.634;9.226;2023-02-11T10:05:29;7.30;99.90
13205;DHT22;6667;52.634;9.226;2023-02-11T10:08:05;7.30;99.90
13205;DHT22;6667;52.634;9.226;2023-02-11T10:10:43;7.30;99.90
13205;DHT22;6667;52.634;9.226;2023-02-11T10:13:32;7.30;99.90
13205;DHT22;6667;52.634;9.226;2023-02-11T10:16:08;7.30;99.90
13205;DHT22;6667;52.634;9.226;2023-02-11T10:18:56;7.30;99.90
13205;DHT22;6667;52.634;9.226;2023-02-11T10:21:31;7.40;99.90
13205;DHT22;6667;52.634;9.226;2023-02-11T10:24:10;7.40;99.90
13205;DHT22;6667;52.634;9.226;2023-02-11T10:26:38;7.40;99.90
13205;DHT22;6667;52.634;9.226;2023-02-11T10:29:13;7.40;99.90
13205;DHT22;6667;52.634;9.226;2023-02-11T10:31:45;7.40;99.90
13205;DHT22;6667;52.634;9.226;2023-02-11T10:34:14;7.40;99.90
13205;DHT22;6667;52.634;9.226;2023-02-11T10:36:42;7.50;99.90
13205;DHT22;6667;52.634;9.226;2023-02-11T10:39:12;7.50;99.90
13205;DHT22;6667;52.634;9.226;2023-02-11T10:41:41;7.50;99.90
13205;DHT22;6667;52.634;9.226;2023-02-11T10:44:18;7.50;99.90
13205;DHT22;6667;52.634;9.226;2023-02-11T10:46:47;7.60;99.90
13205;DHT22;6667;52.634;9.226;2023-02-11T10:49:33;7.60;99.90
13205;DHT22;6667;52.634;9.226;2023-02-11T10:52:28;7.60;99.90
13205;DHT22;6667;52.634;9.226;2023-02-11T10:55:01;7.60;99.90
13205;DHT22;6667;52.634;9.226;2023-02-11T10:57:34;7.60;99.90
13205;DHT22;6667;52.634;9.226;2023-02-11T11:00:07;7.70;99.90
13205;DHT22;6667;52.634;9.226;2023-02-11T11:02:35;7.70;99.90
13205;DHT22;6667;52.634;9.226;2023-02-11T11:05:16;7.70;99.90
13205;DHT22;6667;52.634;9.226;2023-02-11T11:07:52;7.70;99.90
13205;DHT22;6667;52.634;9.226;2023-02-11T11:10:36;7.70;99.90
13205;DHT22;6667;52.634;9.226;2023-02-11T11:13:23;7.80;99.90
13205;DHT22;6667;52.634;9.226;2023-02-11T11:16:14;7.80;99.90
13205;DHT22;6667;52.634;9.226;2023-02-11T11:18:42;7.80;99.90
13205;DHT22;6667;52.634;9.226;2023-02-11T11:21:14;7.80;99.90
13205;DHT22;6667;52.634;9.226;2023-02-11T11:23:48;7.80;99.90
13205;DHT22;6667;52.634;9.226;2023-02-11T11:26:16;7.80;99.90
13205;DHT22;6667;52.634;9.226;2023-02-11T11:28:51;7.90;99.90
13205;DHT22;6667;52.634;9.226;2023-02-11T11:31:21;7.90;99.90
13205;DHT22;6667;52.634;9.226;2023-02-11T11:33:50;7.90;99.90
13205;DHT22;6667;52.634;9.226;2023-02-11T11:36:22;7.90;99.90
13205;DHT22;6667;52.634;9.226;2023-02-11T11:38:52;7.90;99.90
13205;DHT22;6667;52.634;9.226;2023-02-11T11:41:26;7.90;99.90
13205;DHT22;6667;52.634;9.226;2023-02-11T11:43:57;7.90;99.90
13205;DHT22;6667;52.634;9.226;2023-02-11T11:46:27;7.90;99.90
13205;DHT22;6667;52.634;9.226;2023-02-11T11:48:59;7.90;99.90
13205;DHT22;6667;52.634;9.226;2023-02-11T11:51:31;7.90;99.90
13205;DHT22;6667;52.634;9.226;2023-02-11T11:54:02;7.90;99.90
13205;DHT22;6667;52.634;9.226;2023-02-11T11:56:31;7.90;99.90
13205;DHT22;6667;52.634;9.226;2023-02-11T11:58:59;7.90;99.90
13205;DHT22;6667;52.634;9.226;2023-02-11T12:01:34;7.90;99.90
13205;DHT22;6667;52.634;9.226;2023-02-11T12:04:16;7.90;99.90
13205;DHT22;6667;52.634;9.226;2023-02-11T12:07:01;7.90;99.90
13205;DHT22;6667;52.634;9.226;2023-02-11T12:09:36;7.90;99.90
13205;DHT22;6667;52.634;9.226;2023-02-11T12:12:17;8.00;99.90
13205;DHT22;6667;52.634;9.226;2023-02-11T12:14:53;8.00;99.90
13205;DHT22;6667;52.634;9.226;2023-02-11T12:17:34;8.00;99.90
13205;DHT22;6667;52.634;9.226;2023-02-11T12:20:29;7.90;99.90
13205;DHT22;6667;52.634;9.226;2023-02-11T12:23:10;8.00;99.90
13205;DHT22;6667;52.634;9.226;2023-02-11T12:25:45;8.00;99.90
13205;DHT22;6667;52.634;9.226;2023-02-11T12:28:23;8.00;99.90
13205;DHT22;6667;52.634;9.226;2023-02-11T12:31:02;8.00;99.90
13205;DHT22;6667;52.634;9.226;2023-02-11T12:33:44;8.00;99.90
13205;DHT22;6667;52.634;9.226;2023-02-11T12:36:27;8.00;99.90
13205;DHT22;6667;52.634;9.226;2023-02-11T12:39:11;8.10;99.90
13205;DHT22;6667;52.634;9.226;2023-02-11T12:41:56;8.10;99.90
13205;DHT22;6667;52.634;9.226;2023-02-11T12:44:55;8.10;99.90
13205;DHT22;6667;52.634;9.226;2023-02-11T12:47:29;8.10;99.90
13205;DHT22;6667;52.634;9.226;2023-02-11T12:50:08;8.10;99.90
13205;DHT22;6667;52.634;9.226;2023-02-11T12:52:57;8.20;99.90
13205;DHT22;6667;52.634;9.226;2023-02-11T12:55:30;8.20;99.90
13205;DHT22;6667;52.634;9.226;2023-02-11T12:58:01;8.10;99.90
13205;DHT22;6667;52.634;9.226;2023-02-11T13:00:39;8.20;99.90
13205;DHT22;6667;52.634;9.226;2023-02-11T13:03:12;8.20;99.90
13205;DHT22;6667;52.634;9.226;2023-02-11T13:05:45;8.20;99.90
13205;DHT22;6667;52.634;9.226;2023-02-11T13:08:16;8.20;99.90
13205;DHT22;6667;52.634;9.226;2023-02-11T13:10:48;8.20;99.90
13205;DHT22;6667;52.634;9.226;2023-02-11T13:13:18;8.20;99.90
13205;DHT22;6667;52.634;9.226;2023-02-11T13:15:50;8.20;99.90
13205;DHT22;6667;52.634;9.226;2023-02-11T13:18:27;8.20;99.90
13205;DHT22;6667;52.634;9.226;2023-02-11T13:21:01;8.30;99.90
13205;DHT22;6667;52.634;9.226;2023-02-11T13:23:35;8.30;99.90
13205;DHT22;6667;52.634;9.226;2023-02-11T13:26:08;8.30;99.90
13205;DHT22;6667;52.634;9.226;2023-02-11T13:28:42;8.30;99.90
13205;DHT22;6667;52.634;9.226;2023-02-11T13:31:12;8.30;99.90
13205;DHT22;6667;52.634;9.226;2023-02-11T13:33:41;8.30;99.90
13205;DHT22;6667;52.634;9.226;2023-02-11T13:36:18;8.30;99.90
13205;DHT22;6667;52.634;9.226;2023-02-11T13:38:57;8.30;99.90
13205;DHT22;6667;52.634;9.226;2023-02-11T13:41:35;8.30;99.90
13205;DHT22;6667;52.634;9.226;2023-02-11T13:44:15;8.30;99.90
13205;DHT22;6667;52.634;9.226;2023-02-11T13:46:50;8.30;99.90
13205;DHT22;6667;52.634;9.226;2023-02-11T13:49:21;8.30;99.90
13205;DHT22;6667;52.634;9.226;2023-02-11T13:51:49;8.40;99.90
13205;DHT22;6667;52.634;9.226;2023-02-11T13:54:24;8.40;99.90
13205;DHT22;6667;52.634;9.226;2023-02-11T13:59:58;8.40;99.90
13205;DHT22;6667;52.634;9.226;2023-02-11T14:02:30;8.50;99.90
13205;DHT22;6667;52.634;9.226;2023-02-11T14:05:24;8.50;99.90
13205;DHT22;6667;52.634;9.226;2023-02-11T14:08:23;8.50;99.90
13205;DHT22;6667;52.634;9.226;2023-02-11T14:19:47;8.50;99.90
13205;DHT22;6667;52.634;9.226;2023-02-11T14:22:17;8.50;99.90
13205;DHT22;6667;52.634;9.226;2023-02-11T14:24:47;8.50;99.90
13205;DHT22;6667;52.634;9.226;2023-02-11T14:27:21;8.50;99.90
13205;DHT22;6667;52.634;9.226;2023-02-11T14:30:02;8.50;99.90
13205;DHT22;6667;52.634;9.226;2023-02-11T14:32:38;8.50;99.90
13205;DHT22;6667;52.634;9.226;2023-02-11T14:35:17;8.50;99.90
13205;DHT22;6667;52.634;9.226;2023-02-11T14:37:53;8.60;99.90
13205;DHT22;6667;52.634;9.226;2023-02-11T14:40:27;8.60;99.90
13205;DHT22;6667;52.634;9.226;2023-02-11T14:42:56;8.60;99.90
13205;DHT22;6667;52.634;9.226;2023-02-11T14:45:27;8.60;99.90
13205;DHT22;6667;52.634;9.226;2023-02-11T14:48:01;8.60;99.90
13205;DHT22;6667;52.634;9.226;2023-02-11T14:50:35;8.70;99.90
13205;DHT22;6667;52.634;9.226;2023-02-11T14:53:04;8.70;99.90
13205;DHT22;6667;52.634;9.226;2023-02-11T14:55:34;8.70;99.90
13205;DHT22;6667;52.634;9.226;2023-02-11T14:58:07;8.70;99.90
13205;DHT22;6667;52.634;9.226;2023-02-11T15:00:34;8.70;99.90
13205;DHT22;6667;52.634;9.226;2023-02-11T15:03:00;8.70;99.90
13205;DHT22;6667;52.634;9.226;2023-02-11T15:05:27;8.80;99.90
13205;DHT22;6667;52.634;9.226;2023-02-11T15:07:58;8.80;99.90
13205;DHT22;6667;52.634;9.226;2023-02-11T15:10:33;8.80;99.90
13205;DHT22;6667;52.634;9.226;2023-02-11T15:13:01;8.80;99.90
13205;DHT22;6667;52.634;9.226;2023-02-11T15:15:30;8.80;99.90
13205;DHT22;6667;52.634;9.226;2023-02-11T15:18:00;8.80;99.90
13205;DHT22;6667;52.634;9.226;2023-02-11T15:20:28;8.80;99.90
13205;DHT22;6667;52.634;9.226;2023-02-11T15:22:59;8.80;99.90
13205;DHT22;6667;52.634;9.226;2023-02-11T15:25:26;8.80;99.90
13205;DHT22;6667;52.634;9.226;2023-02-11T15:27:54;8.80;99.90
13205;DHT22;6667;52.634;9.226;2023-02-11T15:30:27;8.80;99.90
13205;DHT22;6667;52.634;9.226;2023-02-11T15:32:56;8.80;99.90
13205;DHT22;6667;52.634;9.226;2023-02-11T15:35:25;8.80;99.90
13205;DHT22;6667;52.634;9.226;2023-02-11T15:37:53;8.80;99.90
13205;DHT22;6667;52.634;9.226;2023-02-11T15:40:23;8.80;99.90
13205;DHT22;6667;52.634;9.226;2023-02-11T15:42:53;8.80;99.90
13205;DHT22;6667;52.634;9.226;2023-02-11T15:45:22;8.80;99.90
13205;DHT22;6667;52.634;9.226;2023-02-11T15:47:55;8.80;99.90
13205;DHT22;6667;52.634;9.226;2023-02-11T15:50:24;8.80;99.90
13205;DHT22;6667;52.634;9.226;2023-02-11T15:52:52;8.80;99.90
13205;DHT22;6667;52.634;9.226;2023-02-11T15:55:21;8.80;99.90
13205;DHT22;6667;52.634;9.226;2023-02-11T15:57:52;8.80;99.90
13205;DHT22;6667;52.634;9.226;2023-02-11T16:00:21;8.80;99.90
13205;DHT22;6667;52.634;9.226;2023-02-11T16:02:49;8.80;99.90
13205;DHT22;6667;52.634;9.226;2023-02-11T16:05:28;8.80;99.90
13205;DHT22;6667;52.634;9.226;2023-02-11T16:07:55;8.80;99.90
13205;DHT22;6667;52.634;9.226;2023-02-11T16:10:26;8.80;99.90
13205;DHT22;6667;52.634;9.226;2023-02-11T16:12:58;8.80;99.90
13205;DHT22;6667;52.634;9.226;2023-02-11T16:15:30;8.80;99.90
13205;DHT22;6667;52.634;9.226;2023-02-11T16:18:14;8.80;99.90
13205;DHT22;6667;52.634;9.226;2023-02-11T16:20:46;8.80;99.90
13205;DHT22;6667;52.634;9.226;2023-02-11T16:23:19;8.80;99.90
13205;DHT22;6667;52.634;9.226;2023-02-11T16:25:49;8.80;99.90
13205;DHT22;6667;52.634;9.226;2023-02-11T16:28:17;8.70;99.90
13205;DHT22;6667;52.634;9.226;2023-02-11T16:30:43;8.80;99.90
13205;DHT22;6667;52.634;9.226;2023-02-11T16:33:10;8.80;99.90
13205;DHT22;6667;52.634;9.226;2023-02-11T16:35:37;8.70;99.90
13205;DHT22;6667;52.634;9.226;2023-02-11T16:38:04;8.80;99.90
13205;DHT22;6667;52.634;9.226;2023-02-11T16:40:31;8.70;99.90